Time;durP1;ratioP1;P1;durP2;ratioP2;P2;SDS_P1;SDS_P2;PMS_P1;PMS_P2;Temp;Humidity;BMP_temperature;BMP_pressure;BME280_temperature;BME280_humidity;BME280_pressure;Samples;Min_cycle;Max_cycle;Signal;HPM_P1;HPM_P2
2024/03/07 00:00:15;;;;;;;24.80;19.10;;;13.10;64.90;;;;;;5059740;28;20546;-64
2024/03/07 00:02:42;;;;;;;24.87;18.93;;;13.10;64.60;;;;;;5064149;28;20944;-63
2024/03/07 00:05:08;;;;;;;24.77;19.40;;;13.10;64.60;;;;;;5050661;28;20415;-64
2024/03/07 00:07:34;;;;;;;29.77;20.57;;;13.10;64.40;;;;;;5059675;28;20439;-63
2024/03/07 00:10:00;;;;;;;24.80;19.83;;;13.10;64.30;;;;;;5062672;28;20227;-64
2024/03/07 00:12:27;;;;;;;23.60;19.53;;;13.10;64.30;;;;;;5058540;28;20462;-65
2024/03/07 00:14:53;;;;;;;25.20;19.93;;;13.00;64.10;;;;;;5058886;28;20910;-64
2024/03/07 00:17:19;;;;;;;27.70;19.63;;;13.00;64.00;;;;;;5063630;28;20438;-63
2024/03/07 00:19:45;;;;;;;23.10;18.63;;;13.00;63.80;;;;;;5062153;28;20262;-62
2024/03/07 00:22:10;;;;;;;23.93;19.00;;;13.00;63.70;;;;;;5059819;28;20414;-64
2024/03/07 00:24:37;;;;;;;24.77;18.93;;;12.90;63.40;;;;;;5050905;28;20575;-61
2024/03/07 00:27:03;;;;;;;26.20;20.33;;;12.90;63.40;;;;;;5044202;28;20291;-62
2024/03/07 00:29:29;;;;;;;29.60;20.70;;;12.90;63.10;;;;;;5040520;28;20574;-64
2024/03/07 00:31:54;;;;;;;28.07;20.10;;;12.90;63.00;;;;;;5049359;28;20480;-63
2024/03/07 00:34:22;;;;;;;26.53;20.67;;;12.80;62.60;;;;;;5041373;28;20236;-65
2024/03/07 00:36:48;;;;;;;28.07;20.27;;;12.80;61.90;;;;;;5046400;28;20200;-64
2024/03/07 00:39:14;;;;;;;25.13;18.60;;;12.80;61.60;;;;;;5039777;28;20491;-63
2024/03/07 00:41:40;;;;;;;26.33;20.57;;;12.70;61.60;;;;;;5043119;28;20230;-63
2024/03/07 00:44:08;;;;;;;30.17;22.80;;;12.70;61.50;;;;;;5051237;28;20188;-64
2024/03/07 00:46:34;;;;;;;27.37;20.37;;;12.70;61.20;;;;;;5063073;28;20445;-61
2024/03/07 00:49:01;;;;;;;26.67;20.20;;;12.70;61.10;;;;;;5060776;28;20426;-63
2024/03/07 00:51:26;;;;;;;31.53;23.80;;;12.60;61.10;;;;;;5063341;28;20422;-60
2024/03/07 00:53:52;;;;;;;29.67;21.43;;;12.60;61.10;;;;;;5049391;28;20878;-60
2024/03/07 00:56:18;;;;;;;30.13;21.90;;;12.60;60.90;;;;;;5051835;28;20277;-63
2024/03/07 00:58:44;;;;;;;24.60;19.23;;;12.60;60.50;;;;;;5055998;28;20259;-62
2024/03/07 01:01:11;;;;;;;33.90;21.03;;;12.60;60.60;;;;;;5055487;28;20457;-59
2024/03/07 01:03:37;;;;;;;28.67;22.17;;;12.60;60.70;;;;;;5049651;28;20185;-63
2024/03/07 01:06:03;;;;;;;28.97;21.83;;;12.60;60.50;;;;;;5058547;28;20563;-62
2024/03/07 01:08:32;;;;;;;28.37;20.87;;;12.60;60.30;;;;;;5060891;28;20822;-60
2024/03/07 01:10:58;;;;;;;27.00;20.67;;;12.50;60.10;;;;;;5057959;28;20957;-64
2024/03/07 01:13:23;;;;;;;29.47;21.83;;;12.50;60.40;;;;;;5049916;28;20420;-63
2024/03/07 01:15:49;;;;;;;28.40;21.10;;;12.40;60.50;;;;;;5054622;28;20431;-64
2024/03/07 01:18:16;;;;;;;31.80;22.23;;;12.40;60.60;;;;;;5056034;28;20217;-64
2024/03/07 01:20:42;;;;;;;26.70;21.67;;;12.40;60.70;;;;;;5059563;28;20196;-61
2024/03/07 01:23:08;;;;;;;27.00;20.77;;;12.30;60.70;;;;;;5058968;28;20430;-63
2024/03/07 01:25:34;;;;;;;26.03;19.90;;;12.30;60.70;;;;;;5052359;28;20439;-63
2024/03/07 01:28:01;;;;;;;33.43;22.40;;;12.30;60.80;;;;;;5055023;28;20690;-62
2024/03/07 01:30:28;;;;;;;29.37;22.20;;;12.20;60.70;;;;;;5056170;28;20427;-61
2024/03/07 01:32:54;;;;;;;28.33;22.50;;;12.20;60.60;;;;;;5054976;28;20423;-62
2024/03/07 01:35:20;;;;;;;30.43;21.63;;;12.20;60.50;;;;;;5049697;28;20442;-61
2024/03/07 01:37:45;;;;;;;29.33;22.57;;;12.20;60.50;;;;;;5038984;28;20451;-63
2024/03/07 01:40:11;;;;;;;30.73;21.97;;;12.10;60.60;;;;;;5040061;28;20224;-64
2024/03/07 01:42:37;;;;;;;27.90;21.80;;;12.10;60.70;;;;;;5041523;28;20208;-63
2024/03/07 01:45:03;;;;;;;28.00;20.93;;;12.10;60.80;;;;;;5055344;28;21066;-59
2024/03/07 01:47:29;;;;;;;29.60;22.77;;;12.00;60.10;;;;;;5046248;28;20205;-63
2024/03/07 01:49:54;;;;;;;32.10;22.10;;;12.00;60.20;;;;;;5042737;28;20880;-61
2024/03/07 01:52:22;;;;;;;28.20;22.73;;;11.90;60.00;;;;;;5049035;28;20330;-60
2024/03/07 01:54:48;;;;;;;31.07;24.50;;;11.90;59.80;;;;;;5040712;28;20915;-64
2024/03/07 01:57:16;;;;;;;33.10;23.97;;;11.90;59.70;;;;;;5052255;28;20462;-62
2024/03/07 01:59:43;;;;;;;32.13;23.90;;;11.90;59.50;;;;;;5059662;28;20997;-61
2024/03/07 02:02:09;;;;;;;29.90;23.13;;;11.90;59.30;;;;;;5056364;28;20421;-59
2024/03/07 02:04:34;;;;;;;32.77;23.67;;;11.90;59.00;;;;;;5060013;28;20410;-63
2024/03/07 02:07:00;;;;;;;34.63;24.57;;;11.80;58.60;;;;;;5058278;28;20199;-61
2024/03/07 02:09:26;;;;;;;34.37;25.60;;;11.80;58.50;;;;;;5058006;28;20207;-61
2024/03/07 02:11:51;;;;;;;38.23;26.03;;;11.80;58.50;;;;;;5059260;28;20191;-59
2024/03/07 02:14:17;;;;;;;32.13;23.20;;;11.70;58.40;;;;;;5052159;28;20264;-60
2024/03/07 02:16:43;;;;;;;29.93;23.17;;;11.70;58.40;;;;;;5047622;28;20608;-60
2024/03/07 02:19:13;;;;;;;32.33;23.80;;;11.60;58.40;;;;;;5041787;28;20220;-61
2024/03/07 02:21:39;;;;;;;31.23;23.43;;;11.60;58.40;;;;;;5048819;28;20434;-60
2024/03/07 02:24:05;;;;;;;30.67;23.20;;;11.50;58.40;;;;;;5049515;28;20430;-63
2024/03/07 02:26:30;;;;;;;36.67;23.93;;;11.50;58.60;;;;;;5053845;28;20295;-61
2024/03/07 02:28:56;;;;;;;33.70;24.60;;;11.40;58.40;;;;;;5048100;28;20272;-62
2024/03/07 02:31:34;;;;;;;33.27;24.57;;;11.40;58.40;;;;;;5061612;28;20180;-61
2024/03/07 02:34:01;;;;;;;33.47;24.73;;;11.40;58.30;;;;;;5041208;28;20287;-64
2024/03/07 02:36:27;;;;;;;33.20;24.53;;;11.30;58.20;;;;;;5042450;28;20457;-61
2024/03/07 02:38:52;;;;;;;36.53;24.40;;;11.30;58.20;;;;;;5039328;28;20504;-62
2024/03/07 02:41:18;;;;;;;34.60;27.27;;;11.30;58.00;;;;;;5047769;28;20462;-63
2024/03/07 02:43:43;;;;;;;32.70;25.17;;;11.20;57.80;;;;;;5045550;28;20196;-60
2024/03/07 02:49:31;;;;;;;33.67;23.33;;;11.10;57.80;;;;;;5038404;28;20238;-63
2024/03/07 02:51:56;;;;;;;32.70;24.57;;;11.10;57.70;;;;;;5042836;28;20446;-63
2024/03/07 02:54:22;;;;;;;35.97;26.47;;;11.00;57.60;;;;;;5047232;28;20242;-59
2024/03/07 02:56:48;;;;;;;33.17;24.63;;;11.00;57.70;;;;;;5044677;28;20204;-60
2024/03/07 02:59:13;;;;;;;35.30;24.40;;;11.00;57.70;;;;;;5050631;28;20212;-59
2024/03/07 03:01:39;;;;;;;36.07;25.33;;;10.90;57.60;;;;;;5051190;28;20189;-60
2024/03/07 03:04:05;;;;;;;36.13;25.03;;;10.80;57.70;;;;;;5046220;28;20258;-60
2024/03/07 03:06:31;;;;;;;36.77;24.30;;;10.80;57.60;;;;;;5049642;28;20207;-62
2024/03/07 03:08:57;;;;;;;32.90;25.57;;;10.70;57.60;;;;;;5047458;28;20199;-59
2024/03/07 03:11:22;;;;;;;37.10;25.47;;;10.70;57.60;;;;;;5053387;28;20938;-60
2024/03/07 03:13:48;;;;;;;35.53;26.20;;;10.60;57.60;;;;;;5049763;28;20180;-59
2024/03/07 03:16:14;;;;;;;35.07;24.57;;;10.60;57.70;;;;;;5058846;28;20668;-60
2024/03/07 03:18:40;;;;;;;36.27;25.33;;;10.50;57.40;;;;;;5046686;28;20475;-63
2024/03/07 03:21:05;;;;;;;34.10;25.70;;;10.50;57.50;;;;;;5052103;28;20702;-61
2024/03/07 03:23:31;;;;;;;40.83;26.30;;;10.50;57.60;;;;;;5056865;28;20235;-63
2024/03/07 03:25:57;;;;;;;36.83;24.60;;;10.50;57.70;;;;;;5052132;28;20652;-61
2024/03/07 03:28:23;;;;;;;34.83;25.00;;;10.50;57.90;;;;;;5054676;28;20192;-58
2024/03/07 03:30:52;;;;;;;34.90;22.57;;;10.40;57.80;;;;;;5056845;28;20184;-59
2024/03/07 03:33:18;;;;;;;32.70;25.23;;;10.30;57.70;;;;;;5048082;28;20445;-62
2024/03/07 03:35:44;;;;;;;35.63;25.90;;;10.30;57.90;;;;;;5044360;28;20435;-60
2024/03/07 03:38:10;;;;;;;37.90;24.93;;;10.30;58.00;;;;;;5046472;28;20964;-62
2024/03/07 03:40:36;;;;;;;38.30;24.70;;;10.20;58.20;;;;;;5053152;28;20188;-61
2024/03/07 03:43:02;;;;;;;44.83;25.83;;;10.20;58.40;;;;;;5047552;28;20183;-63
2024/03/07 03:45:28;;;;;;;36.73;26.10;;;10.20;58.50;;;;;;5045623;28;20185;-59
2024/03/07 03:47:54;;;;;;;35.00;24.77;;;10.20;58.50;;;;;;5051635;28;20547;-62
2024/03/07 03:50:22;;;;;;;36.90;24.93;;;10.20;58.60;;;;;;5058694;28;20439;-62
2024/03/07 03:52:48;;;;;;;33.07;24.83;;;10.10;58.40;;;;;;5041861;28;21514;-61
2024/03/07 03:55:14;;;;;;;36.30;26.23;;;10.10;58.40;;;;;;5055473;28;20504;-61
2024/03/07 03:57:41;;;;;;;31.77;22.60;;;10.00;58.30;;;;;;5049338;28;20212;-59
2024/03/07 04:00:14;;;;;;;36.60;26.37;;;10.10;58.60;;;;;;5042881;28;20528;-63
2024/03/07 04:02:40;;;;;;;36.87;26.57;;;10.00;58.70;;;;;;5045089;28;20835;-62
2024/03/07 04:05:07;;;;;;;32.93;24.60;;;10.00;58.70;;;;;;5048588;28;20501;-61
2024/03/07 04:07:33;;;;;;;34.03;23.87;;;10.00;58.60;;;;;;5048902;28;20466;-59
2024/03/07 04:09:58;;;;;;;39.10;25.97;;;10.00;58.30;;;;;;5054239;28;20873;-59
2024/03/07 04:12:26;;;;;;;36.60;25.43;;;9.90;59.10;;;;;;5047241;28;20184;-61
2024/03/07 04:14:54;;;;;;;41.33;24.90;;;10.00;58.20;;;;;;5053415;28;20565;-59
2024/03/07 04:17:20;;;;;;;34.77;24.50;;;9.90;58.80;;;;;;5049915;28;20473;-57
2024/03/07 04:19:46;;;;;;;36.40;24.10;;;9.90;58.70;;;;;;5045506;28;20557;-62
2024/03/07 04:22:12;;;;;;;37.27;25.50;;;9.90;58.70;;;;;;5043164;28;20958;-61
2024/03/07 04:24:38;;;;;;;40.70;26.83;;;9.80;58.70;;;;;;5050698;28;20513;-61
2024/03/07 04:27:05;;;;;;;38.03;26.20;;;9.80;58.80;;;;;;5054666;28;20438;-61
2024/03/07 04:29:32;;;;;;;37.57;24.47;;;9.70;58.70;;;;;;5055039;28;20185;-63
2024/03/07 04:31:58;;;;;;;37.17;24.30;;;9.60;58.80;;;;;;5044536;28;20462;-61
2024/03/07 04:34:23;;;;;;;33.67;24.03;;;9.70;59.10;;;;;;5043128;28;20543;-62
2024/03/07 04:36:49;;;;;;;34.37;24.17;;;9.70;59.20;;;;;;5040292;28;20204;-60
2024/03/07 04:39:24;;;;;;;32.30;24.30;;;9.70;59.40;;;;;;5057663;28;20219;-58
2024/03/07 04:41:52;;;;;;;34.60;24.40;;;9.70;59.50;;;;;;5048555;28;20952;-59
2024/03/07 04:44:18;;;;;;;38.03;25.23;;;9.60;59.70;;;;;;5053679;28;20803;-61
2024/03/07 04:46:44;;;;;;;38.57;25.83;;;9.60;59.70;;;;;;5057710;28;20434;-58
2024/03/07 04:49:10;;;;;;;36.43;25.43;;;9.60;59.80;;;;;;5056651;28;20427;-60
2024/03/07 04:51:36;;;;;;;36.43;24.50;;;9.50;59.90;;;;;;5059562;28;20426;-63
2024/03/07 04:54:01;;;;;;;38.27;24.10;;;9.50;60.10;;;;;;5055916;28;20253;-64
2024/03/07 04:56:27;;;;;;;38.10;26.00;;;9.50;60.30;;;;;;5053947;28;20201;-61
2024/03/07 04:58:53;;;;;;;33.13;23.57;;;9.50;60.70;;;;;;5058508;28;20219;-58
2024/03/07 05:01:20;;;;;;;37.10;24.07;;;9.40;60.80;;;;;;5058241;28;20176;-59
2024/03/07 05:03:46;;;;;;;43.03;25.23;;;9.40;60.80;;;;;;5058237;28;20427;-58
2024/03/07 05:06:11;;;;;;;34.70;25.63;;;9.40;60.70;;;;;;5052594;28;20475;-60
2024/03/07 05:08:37;;;;;;;35.77;24.30;;;9.40;60.80;;;;;;5055591;28;20222;-57
2024/03/07 05:11:04;;;;;;;41.17;24.60;;;9.40;60.80;;;;;;5060251;28;20188;-61
2024/03/07 05:13:31;;;;;;;37.47;25.60;;;9.30;60.50;;;;;;5061614;28;20188;-61
2024/03/07 05:15:57;;;;;;;35.67;22.87;;;9.10;60.00;;;;;;5059980;28;20509;-60
2024/03/07 05:18:23;;;;;;;32.73;23.20;;;9.10;60.60;;;;;;5063768;28;20438;-58
2024/03/07 05:20:49;;;;;;;37.93;25.37;;;9.10;60.80;;;;;;5059487;28;20435;-63
2024/03/07 05:23:14;;;;;;;39.33;25.57;;;9.10;60.90;;;;;;5047427;28;20189;-63
2024/03/07 05:25:40;;;;;;;35.87;22.40;;;9.10;60.60;;;;;;5048649;28;20434;-59
2024/03/07 05:28:06;;;;;;;44.33;18.53;;;9.10;60.20;;;;;;5057118;28;20196;-60
2024/03/07 05:30:33;;;;;;;44.67;19.10;;;8.90;59.30;;;;;;5062199;28;20177;-63
2024/03/07 05:33:00;;;;;;;23.47;16.70;;;8.60;59.50;;;;;;5054370;28;20263;-63
2024/03/07 05:35:29;;;;;;;37.10;19.13;;;8.50;59.90;;;;;;5048817;28;20530;-61
2024/03/07 05:37:56;;;;;;;26.63;16.70;;;8.50;60.30;;;;;;5041133;28;21017;-63
2024/03/07 05:40:22;;;;;;;49.07;17.60;;;8.50;60.50;;;;;;5041627;28;20579;-66
2024/03/07 05:42:47;;;;;;;22.00;16.87;;;8.50;60.80;;;;;;5040493;28;20443;-62
2024/03/07 05:45:14;;;;;;;22.80;17.13;;;8.50;60.50;;;;;;5041697;28;20192;-62
2024/03/07 05:47:40;;;;;;;23.30;18.47;;;8.50;60.40;;;;;;5043187;28;20211;-64
2024/03/07 05:50:09;;;;;;;22.50;17.67;;;8.40;60.20;;;;;;5042030;28;20435;-62
2024/03/07 05:52:35;;;;;;;24.80;18.27;;;8.40;60.50;;;;;;5050237;28;20195;-61
2024/03/07 05:55:00;;;;;;;24.20;16.97;;;8.40;60.80;;;;;;5039834;28;20496;-64
2024/03/07 05:57:26;;;;;;;24.80;17.33;;;8.30;60.60;;;;;;5054760;28;20204;-64
2024/03/07 05:59:51;;;;;;;21.93;17.67;;;8.30;60.50;;;;;;5058392;28;20205;-62
2024/03/07 06:02:17;;;;;;;25.00;18.30;;;8.30;60.30;;;;;;5054146;28;20249;-61
2024/03/07 06:04:43;;;;;;;23.37;18.30;;;8.30;60.10;;;;;;5055770;28;20267;-63
2024/03/07 06:07:10;;;;;;;20.83;16.37;;;8.30;59.90;;;;;;5059534;28;20208;-63
2024/03/07 06:09:36;;;;;;;21.57;16.60;;;8.00;59.80;;;;;;5061276;28;20526;-60
2024/03/07 06:12:04;;;;;;;22.53;14.70;;;8.00;60.30;;;;;;5060929;28;20868;-60
2024/03/07 06:14:30;;;;;;;18.93;15.60;;;8.10;61.20;;;;;;5051389;28;20192;-62
2024/03/07 06:16:57;;;;;;;17.40;14.40;;;8.20;60.60;;;;;;5041642;28;20527;-59
2024/03/07 06:19:23;;;;;;;17.17;13.57;;;8.40;60.70;;;;;;5042323;28;20479;-66
2024/03/07 06:21:49;;;;;;;17.87;13.87;;;8.50;60.60;;;;;;5041501;28;20428;-60
2024/03/07 06:24:15;;;;;;;19.30;15.50;;;8.70;59.80;;;;;;5047096;28;20243;-61
2024/03/07 06:29:07;;;;;;;17.80;14.67;;;8.80;60.00;;;;;;5056442;28;20430;-59
2024/03/07 06:31:34;;;;;;;18.90;14.17;;;8.90;60.00;;;;;;5058490;28;20367;-61
2024/03/07 06:34:00;;;;;;;15.67;13.43;;;9.10;59.80;;;;;;5061559;28;20502;-58
2024/03/07 06:36:25;;;;;;;17.83;14.37;;;9.30;59.00;;;;;;5056539;28;20513;-62
2024/03/07 06:38:51;;;;;;;15.87;13.97;;;9.50;58.80;;;;;;5058885;28;20282;-64
2024/03/07 06:41:17;;;;;;;20.60;14.67;;;9.50;58.40;;;;;;5063458;28;20198;-60
2024/03/07 06:43:44;;;;;;;25.43;14.70;;;9.60;57.90;;;;;;5056166;28;20470;-58
2024/03/07 06:46:10;;;;;;;41.90;15.40;;;9.70;57.50;;;;;;5067236;28;20257;-62
2024/03/07 06:48:36;;;;;;;26.63;15.10;;;9.70;57.20;;;;;;5065072;28;20429;-60
2024/03/07 06:51:01;;;;;;;33.67;14.57;;;9.70;57.10;;;;;;5065034;28;20494;-67
2024/03/07 06:53:28;;;;;;;22.33;13.90;;;9.70;56.80;;;;;;5065452;28;20188;-58
2024/03/07 06:55:55;;;;;;;18.00;14.57;;;9.70;56.60;;;;;;5053396;28;20185;-61
2024/03/07 06:58:20;;;;;;;23.07;13.90;;;9.70;57.00;;;;;;5052628;28;20455;-58
2024/03/07 07:00:46;;;;;;;17.47;14.93;;;9.60;56.60;;;;;;5057843;28;20480;-60
2024/03/07 07:03:14;;;;;;;17.87;14.23;;;9.60;56.90;;;;;;5065180;28;20552;-63
2024/03/07 07:05:40;;;;;;;78.47;16.60;;;9.70;57.50;;;;;;5058645;28;20185;-64
2024/03/07 07:08:06;;;;;;;54.47;16.50;;;9.80;56.90;;;;;;5054534;28;20456;-60
2024/03/07 07:10:32;;;;;;;59.23;16.83;;;9.80;56.00;;;;;;5060343;28;20474;-61
2024/03/07 07:12:58;;;;;;;30.73;15.07;;;9.70;56.10;;;;;;5061076;28;20976;-58
2024/03/07 07:15:24;;;;;;;33.93;15.10;;;9.70;56.40;;;;;;5059142;28;20467;-64
2024/03/07 07:17:50;;;;;;;52.20;15.00;;;9.70;56.50;;;;;;5058751;28;20208;-63
2024/03/07 07:20:16;;;;;;;50.90;14.83;;;9.70;56.10;;;;;;5064782;28;20215;-62
2024/03/07 07:22:43;;;;;;;19.60;13.87;;;9.60;56.00;;;;;;5062452;28;20429;-62
2024/03/07 07:25:15;;;;;;;33.40;13.97;;;9.50;56.40;;;;;;5059871;28;20565;-59
2024/03/07 07:27:43;;;;;;;19.33;14.70;;;9.50;56.90;;;;;;5050055;28;20490;-61
2024/03/07 07:30:13;;;;;;;19.60;13.53;;;9.50;57.20;;;;;;5059045;28;20916;-59
2024/03/07 07:32:39;;;;;;;17.17;13.77;;;9.50;57.60;;;;;;5055450;28;20433;-60
2024/03/07 07:35:12;;;;;;;18.17;13.80;;;9.60;57.60;;;;;;5062743;28;20423;-60
2024/03/07 07:37:39;;;;;;;16.27;14.43;;;9.70;57.70;;;;;;5057976;28;20457;-59
2024/03/07 07:40:08;;;;;;;19.87;15.20;;;9.80;57.80;;;;;;5056159;28;20473;-59
2024/03/07 07:42:38;;;;;;;17.80;14.83;;;10.00;57.00;;;;;;5053904;28;20447;-59
2024/03/07 07:45:10;;;;;;;19.60;15.70;;;10.20;57.20;;;;;;5049018;28;20511;-61
2024/03/07 07:47:40;;;;;;;19.03;14.77;;;10.40;56.60;;;;;;5060676;28;20446;-63
2024/03/07 07:50:12;;;;;;;19.47;16.07;;;10.50;56.30;;;;;;5059037;28;20511;-60
2024/03/07 07:52:40;;;;;;;21.33;17.03;;;10.60;56.40;;;;;;5060073;28;20455;-58
2024/03/07 07:55:14;;;;;;;20.27;15.77;;;10.60;56.10;;;;;;5053782;28;20457;-59
2024/03/07 07:57:44;;;;;;;24.80;18.07;;;10.70;56.30;;;;;;5058864;28;20844;-61
2024/03/07 08:00:11;;;;;;;25.37;20.20;;;10.70;56.10;;;;;;5059668;28;20910;-60
2024/03/07 08:02:37;;;;;;;22.30;17.40;;;10.90;55.70;;;;;;5051488;28;20427;-62
2024/03/07 08:05:05;;;;;;;30.00;18.13;;;11.10;55.50;;;;;;5049212;28;20423;-60
2024/03/07 08:07:31;;;;;;;24.47;18.13;;;11.10;55.40;;;;;;5053733;28;20205;-64
2024/03/07 08:09:56;;;;;;;26.07;18.53;;;11.10;54.50;;;;;;5050137;28;20460;-64
2024/03/07 08:12:22;;;;;;;20.37;16.83;;;11.00;55.20;;;;;;5050968;28;20204;-59
2024/03/07 08:14:48;;;;;;;23.30;18.83;;;11.00;55.10;;;;;;5051831;28;20263;-63
2024/03/07 08:17:14;;;;;;;20.17;17.33;;;11.00;55.30;;;;;;5049453;28;20538;-60
2024/03/07 08:19:40;;;;;;;24.03;18.77;;;11.00;56.20;;;;;;5059214;28;20209;-61
2024/03/07 08:22:06;;;;;;;23.93;17.83;;;11.10;55.80;;;;;;5048660;28;20439;-61
2024/03/07 08:24:32;;;;;;;22.17;19.47;;;11.20;55.60;;;;;;5047007;28;20445;-64
2024/03/07 08:26:57;;;;;;;24.50;19.00;;;11.20;55.50;;;;;;5052607;28;20195;-62
2024/03/07 08:29:24;;;;;;;21.87;17.43;;;11.20;54.80;;;;;;5056210;28;20466;-65
2024/03/07 08:31:49;;;;;;;23.13;19.60;;;11.20;54.50;;;;;;5060032;28;20176;-65
2024/03/07 08:34:15;;;;;;;24.83;16.87;;;10.90;54.10;;;;;;5054742;28;20946;-64
2024/03/07 08:36:40;;;;;;;22.67;19.00;;;10.50;55.40;;;;;;5058706;28;20201;-60
2024/03/07 08:39:10;;;;;;;25.90;17.10;;;10.60;56.60;;;;;;5052059;28;20219;-61
2024/03/07 08:41:40;;;;;;;24.90;19.93;;;10.90;56.40;;;;;;5049454;28;20195;-61
2024/03/07 08:44:06;;;;;;;27.73;18.47;;;11.10;56.10;;;;;;5060705;28;20410;-62
2024/03/07 08:46:32;;;;;;;24.90;18.53;;;11.00;54.90;;;;;;5059517;28;20437;-61
2024/03/07 08:48:58;;;;;;;23.80;18.10;;;10.80;55.80;;;;;;5056202;28;20172;-61
2024/03/07 08:51:23;;;;;;;25.73;18.00;;;10.90;56.50;;;;;;5052156;28;20242;-63
2024/03/07 08:53:50;;;;;;;23.70;18.43;;;10.70;56.30;;;;;;5055092;28;20223;-62
2024/03/07 08:56:15;;;;;;;22.63;17.80;;;10.50;56.50;;;;;;5043287;28;20219;-64
2024/03/07 08:58:43;;;;;;;25.27;18.40;;;10.60;57.60;;;;;;5048794;28;20602;-63
2024/03/07 09:01:09;;;;;;;22.20;18.07;;;10.90;57.20;;;;;;5050230;28;20276;-60
2024/03/07 09:03:34;;;;;;;26.40;19.07;;;10.50;56.80;;;;;;5056467;28;20941;-59
2024/03/07 09:06:00;;;;;;;25.07;17.53;;;10.70;57.60;;;;;;5049819;28;20199;-64
2024/03/07 09:08:26;;;;;;;20.67;16.77;;;10.50;57.20;;;;;;5047607;28;20268;-66
2024/03/07 09:10:55;;;;;;;24.30;18.47;;;10.70;56.80;;;;;;5047924;28;20203;-63
2024/03/07 09:13:23;;;;;;;23.70;19.83;;;11.00;56.90;;;;;;5053283;28;20433;-62
2024/03/07 09:15:49;;;;;;;21.53;17.00;;;11.30;56.40;;;;;;5058212;28;21248;-60
2024/03/07 09:18:15;;;;;;;23.07;17.10;;;11.40;56.80;;;;;;5064002;28;20431;-60
2024/03/07 09:20:41;;;;;;;24.60;18.23;;;11.50;56.60;;;;;;5061037;28;20200;-59
2024/03/07 09:23:07;;;;;;;24.13;19.10;;;11.50;56.10;;;;;;5066406;28;21087;-62
2024/03/07 09:25:32;;;;;;;25.00;20.30;;;11.70;56.90;;;;;;5055664;28;20176;-62
2024/03/07 09:28:00;;;;;;;26.30;19.10;;;12.00;56.80;;;;;;5057720;28;20199;-59
2024/03/07 09:30:27;;;;;;;24.17;19.40;;;12.10;55.80;;;;;;5053718;28;20204;-60
2024/03/07 09:32:55;;;;;;;24.13;19.13;;;12.20;54.40;;;;;;5064386;28;20427;-60
2024/03/07 09:35:21;;;;;;;26.40;19.90;;;12.20;54.80;;;;;;5059402;28;20430;-62
2024/03/07 09:37:47;;;;;;;32.30;23.47;;;12.30;54.30;;;;;;5059928;28;21148;-63
2024/03/07 09:40:14;;;;;;;23.27;20.03;;;12.30;53.70;;;;;;5061677;28;20981;-60
2024/03/07 09:42:47;;;;;;;28.50;21.20;;;12.20;55.10;;;;;;5060988;28;20423;-63
2024/03/07 09:45:16;;;;;;;29.43;21.53;;;12.50;54.80;;;;;;5052223;28;20780;-60
2024/03/07 09:47:43;;;;;;;29.93;23.37;;;12.80;54.60;;;;;;5055030;28;20551;-66
2024/03/07 09:50:09;;;;;;;32.90;21.77;;;12.80;53.50;;;;;;5045268;28;20439;-63
2024/03/07 09:52:35;;;;;;;27.77;22.27;;;12.90;53.90;;;;;;5051976;28;20961;-61
2024/03/07 09:55:02;;;;;;;30.60;21.57;;;13.20;54.10;;;;;;5055107;28;20915;-62
2024/03/07 09:57:32;;;;;;;31.00;24.30;;;13.30;53.00;;;;;;5055647;28;20974;-63
2024/03/07 09:59:59;;;;;;;30.97;22.30;;;13.50;52.90;;;;;;5056268;28;20469;-63
2024/03/07 10:02:26;;;;;;;32.30;21.60;;;13.60;51.90;;;;;;5050329;28;20449;-64
2024/03/07 10:04:54;;;;;;;27.80;22.43;;;13.70;51.90;;;;;;5051845;28;20451;-59
2024/03/07 10:07:21;;;;;;;27.50;20.67;;;13.40;51.60;;;;;;5050685;28;20523;-63
2024/03/07 10:09:47;;;;;;;27.80;21.77;;;13.10;53.50;;;;;;5047274;28;20454;-61
2024/03/07 10:12:12;;;;;;;27.70;21.53;;;13.50;53.20;;;;;;5047353;28;20443;-63
2024/03/07 10:14:49;;;;;;;28.80;21.73;;;13.80;53.10;;;;;;5053916;28;20961;-60
2024/03/07 10:17:14;;;;;;;26.73;21.80;;;14.20;53.10;;;;;;5045702;28;20906;-64
2024/03/07 10:19:41;;;;;;;29.13;21.37;;;14.00;51.80;;;;;;5049267;28;20505;-63
2024/03/07 10:22:06;;;;;;;28.03;20.60;;;13.90;51.70;;;;;;5048343;28;20188;-63
2024/03/07 10:24:32;;;;;;;28.40;21.33;;;14.00;51.90;;;;;;5052365;28;20530;-64
2024/03/07 10:27:00;;;;;;;29.10;21.37;;;14.30;52.50;;;;;;5052035;28;21115;-63
2024/03/07 10:29:26;;;;;;;24.47;19.43;;;14.30;51.90;;;;;;5050418;28;20438;-64
2024/03/07 10:31:52;;;;;;;29.07;21.27;;;14.40;51.30;;;;;;5051138;28;20430;-62
2024/03/07 10:34:18;;;;;;;28.13;20.97;;;14.40;51.00;;;;;;5047833;28;20447;-63
2024/03/07 10:36:45;;;;;;;23.13;19.90;;;14.80;50.30;;;;;;5053885;28;20451;-60
2024/03/07 10:39:16;;;;;;;24.73;19.97;;;15.10;49.70;;;;;;5051832;28;20553;-63
2024/03/07 10:41:47;;;;;;;26.67;21.73;;;14.80;49.50;;;;;;5054950;28;20447;-62
2024/03/07 10:44:25;;;;;;;28.17;22.40;;;14.20;49.30;;;;;;5054785;28;20918;-62
2024/03/07 10:46:57;;;;;;;27.40;21.07;;;14.20;50.60;;;;;;5044101;28;20454;-59
2024/03/07 10:49:28;;;;;;;26.20;21.03;;;14.60;50.40;;;;;;5046285;28;21119;-61
2024/03/07 10:52:10;;;;;;;31.03;22.60;;;14.70;49.10;;;;;;5048927;28;20447;-65
2024/03/07 10:54:54;;;;;;;29.57;22.83;;;14.90;48.20;;;;;;5048084;28;20949;-59
2024/03/07 10:57:49;;;;;;;25.70;21.40;;;15.10;49.40;;;;;;5034037;28;21042;-62
2024/03/07 11:00:29;;;;;;;26.40;20.40;;;15.10;48.70;;;;;;5047570;28;21047;-59
2024/03/07 11:02:56;;;;;;;31.57;22.90;;;14.80;47.50;;;;;;5054860;28;20415;-59
2024/03/07 11:05:29;;;;;;;27.83;21.27;;;14.50;47.90;;;;;;5041639;28;20447;-63
2024/03/07 11:08:11;;;;;;;29.17;24.13;;;14.10;48.40;;;;;;5040672;28;20463;-61
2024/03/07 11:10:37;;;;;;;28.90;21.60;;;14.10;49.50;;;;;;5043535;28;20470;-63
2024/03/07 11:13:12;;;;;;;26.40;21.37;;;13.80;49.60;;;;;;5060317;28;20513;-61
2024/03/07 11:15:42;;;;;;;28.20;20.87;;;13.20;49.70;;;;;;5050588;28;20476;-63
2024/03/07 11:18:09;;;;;;;27.00;20.40;;;13.10;51.20;;;;;;5059880;28;20545;-60
2024/03/07 11:20:36;;;;;;;31.60;20.67;;;13.40;51.20;;;;;;5049827;28;20478;-65
2024/03/07 11:23:30;;;;;;;29.70;22.47;;;13.40;49.70;;;;;;5046596;28;20450;-63
2024/03/07 11:26:03;;;;;;;27.13;21.10;;;13.70;49.10;;;;;;5054916;28;20458;-63
2024/03/07 11:28:29;;;;;;;29.93;21.90;;;14.10;49.20;;;;;;5055031;28;20418;-60
2024/03/07 11:31:06;;;;;;;28.43;22.73;;;14.20;48.80;;;;;;5057042;28;21145;-62
2024/03/07 11:33:34;;;;;;;26.03;21.67;;;13.70;49.80;;;;;;5051412;28;20184;-66
2024/03/07 11:36:01;;;;;;;28.33;21.63;;;13.60;50.90;;;;;;5049283;28;20953;-65
2024/03/07 11:38:34;;;;;;;31.80;20.93;;;13.60;50.30;;;;;;5050511;28;20438;-60
2024/03/07 11:41:02;;;;;;;29.30;22.07;;;13.80;51.00;;;;;;5052004;28;20469;-64
2024/03/07 11:43:28;;;;;;;29.20;22.07;;;14.00;50.50;;;;;;5049151;28;20446;-63
2024/03/07 11:45:57;;;;;;;31.27;23.23;;;14.00;50.30;;;;;;5049814;28;20443;-63
2024/03/07 11:48:23;;;;;;;25.77;22.40;;;13.90;50.30;;;;;;5051384;28;20438;-62
2024/03/07 11:50:49;;;;;;;27.20;22.10;;;13.40;50.90;;;;;;5065972;28;20419;-62
2024/03/07 11:53:15;;;;;;;31.57;24.57;;;13.50;51.80;;;;;;5062400;28;20263;-60
2024/03/07 11:55:45;;;;;;;35.63;22.77;;;13.20;51.40;;;;;;5056574;28;20808;-58
2024/03/07 11:58:16;;;;;;;27.90;21.37;;;13.20;51.90;;;;;;5060631;28;20446;-59
2024/03/07 12:00:45;;;;;;;29.27;22.30;;;13.10;52.30;;;;;;5061571;28;20553;-58
2024/03/07 12:03:20;;;;;;;30.43;23.70;;;13.10;52.40;;;;;;5057116;28;20504;-62
2024/03/07 12:05:51;;;;;;;29.10;22.40;;;13.00;52.30;;;;;;5053441;28;20534;-61
2024/03/07 12:08:16;;;;;;;30.00;22.47;;;13.10;51.90;;;;;;5064258;28;20422;-62
2024/03/07 12:10:43;;;;;;;34.50;23.00;;;13.00;51.90;;;;;;5056415;28;20862;-61
2024/03/07 12:13:15;;;;;;;29.00;22.93;;;12.90;51.30;;;;;;5063163;28;20745;-62
2024/03/07 12:15:42;;;;;;;32.93;23.97;;;12.60;52.10;;;;;;5060187;28;20438;-61
2024/03/07 12:18:09;;;;;;;32.50;23.40;;;12.60;52.80;;;;;;5054164;28;20451;-61
2024/03/07 12:20:40;;;;;;;29.00;23.00;;;12.80;53.00;;;;;;5061265;28;20501;-62
2024/03/07 12:23:11;;;;;;;28.27;21.37;;;12.90;52.50;;;;;;5048230;28;20422;-61
2024/03/07 12:25:38;;;;;;;31.23;23.53;;;12.90;51.70;;;;;;5054683;28;20961;-61
2024/03/07 12:28:17;;;;;;;29.90;21.90;;;13.00;52.50;;;;;;5060478;28;20466;-63
2024/03/07 12:30:45;;;;;;;30.50;24.47;;;13.40;52.90;;;;;;5043590;28;20451;-57
2024/03/07 12:33:16;;;;;;;28.50;22.47;;;13.70;51.50;;;;;;5052965;28;20442;-61
2024/03/07 12:35:43;;;;;;;29.00;21.40;;;13.90;51.50;;;;;;5054671;28;20455;-62